createdAt,value
2022-08-06T00:00:05.742Z,12.60
2022-08-06T00:02:31.361Z,12.50
2022-08-06T00:05:00.921Z,12.50
2022-08-06T00:07:28.931Z,12.40
2022-08-06T00:10:03.838Z,12.40
2022-08-06T00:12:35.391Z,12.40
2022-08-06T00:15:13.168Z,12.40
2022-08-06T00:17:47.813Z,12.40
2022-08-06T00:20:25.588Z,12.40
2022-08-06T00:23:01.627Z,12.40
2022-08-06T00:25:35.795Z,12.40
2022-08-06T00:28:12.006Z,12.40
2022-08-06T00:30:38.840Z,12.30
2022-08-06T00:33:05.733Z,12.30
2022-08-06T00:35:33.082Z,12.30
2022-08-06T00:38:01.593Z,12.30
2022-08-06T00:40:31.040Z,12.30
2022-08-06T00:43:00.974Z,12.20
2022-08-06T00:45:38.002Z,12.20
2022-08-06T00:48:09.267Z,12.20
2022-08-06T00:50:56.089Z,12.10
2022-08-06T00:53:23.201Z,12.10
2022-08-06T00:55:59.879Z,12.10
2022-08-06T00:58:39.568Z,12.10
2022-08-06T01:01:17.443Z,12.10
2022-08-06T01:03:51.837Z,12.00
2022-08-06T01:06:56.061Z,12.00
2022-08-06T01:09:10.255Z,12.00
2022-08-06T01:11:40.856Z,11.90
2022-08-06T01:14:09.858Z,11.90
2022-08-06T01:16:58.067Z,11.80
2022-08-06T01:21:20.317Z,11.80
2022-08-06T01:22:43.910Z,11.80
2022-08-06T01:25:24.021Z,11.70
2022-08-06T01:28:13.595Z,11.60
2022-08-06T01:30:55.436Z,11.60
2022-08-06T01:33:31.042Z,11.50
2022-08-06T01:36:08.156Z,11.50
2022-08-06T01:38:43.532Z,11.50
2022-08-06T01:41:13.791Z,11.40
2022-08-06T01:44:05.433Z,11.40
2022-08-06T01:46:29.603Z,11.50
2022-08-06T01:48:58.995Z,11.50
2022-08-06T01:52:14.278Z,11.60
2022-08-06T01:54:26.744Z,11.60
2022-08-06T01:57:00.329Z,11.60
2022-08-06T01:59:34.832Z,11.60
2022-08-06T02:02:09.056Z,11.60
2022-08-06T02:04:41.230Z,11.60
2022-08-06T02:08:34.094Z,11.60
2022-08-06T02:10:01.499Z,11.60
2022-08-06T02:12:31.419Z,11.60
2022-08-06T02:15:38.555Z,11.60
2022-08-06T02:18:18.271Z,11.60
2022-08-06T02:21:18.614Z,11.50
2022-08-06T02:23:52.928Z,11.50
2022-08-06T02:26:21.522Z,11.50
2022-08-06T02:28:53.455Z,11.50
2022-08-06T02:31:22.653Z,11.50
2022-08-06T02:34:03.169Z,11.50
2022-08-06T02:36:50.120Z,11.40
2022-08-06T02:39:52.239Z,11.40
2022-08-06T02:42:21.675Z,11.40
2022-08-06T02:45:06.279Z,11.30
2022-08-06T02:48:00.507Z,11.20
2022-08-06T02:50:43.082Z,11.30
2022-08-06T02:53:24.834Z,11.20
2022-08-06T02:56:07.364Z,11.20
2022-08-06T02:58:45.069Z,11.10
2022-08-06T03:01:24.515Z,11.00
2022-08-06T03:03:59.013Z,11.00
2022-08-06T03:06:30.668Z,11.00
2022-08-06T03:08:58.951Z,11.00
2022-08-06T03:11:26.941Z,11.00
2022-08-06T03:13:59.957Z,10.90
2022-08-06T03:16:30.399Z,10.90
2022-08-06T03:19:54.917Z,10.90
2022-08-06T03:21:55.918Z,10.80
2022-08-06T03:24:26.281Z,10.80
2022-08-06T03:26:57.942Z,10.80
2022-08-06T03:29:27.868Z,10.70
2022-08-06T03:31:59.048Z,10.70
2022-08-06T03:34:44.530Z,10.70
2022-08-06T03:37:13.876Z,10.70
2022-08-06T03:39:47.014Z,10.70
2022-08-06T03:42:14.102Z,10.70
2022-08-06T03:44:41.737Z,10.60
2022-08-06T03:47:31.198Z,10.60
2022-08-06T03:50:10.869Z,10.60
2022-08-06T03:52:44.008Z,10.60
2022-08-06T03:55:22.846Z,10.60
2022-08-06T03:57:52.892Z,10.60
2022-08-06T04:00:28.683Z,10.60
2022-08-06T04:02:58.040Z,10.60
2022-08-06T04:05:31.285Z,10.60
2022-08-06T04:08:03.480Z,10.60
2022-08-06T04:10:35.457Z,10.60
2022-08-06T04:14:03.610Z,10.60
2022-08-06T04:15:57.530Z,10.70
2022-08-06T04:18:30.196Z,10.70
2022-08-06T04:21:19.623Z,10.70
2022-08-06T04:23:49.182Z,10.80
2022-08-06T04:26:20.355Z,10.80
2022-08-06T04:28:57.883Z,10.80
2022-08-06T04:32:11.481Z,10.80
2022-08-06T04:34:27.109Z,10.80
2022-08-06T04:37:01.533Z,10.90
2022-08-06T04:39:37.973Z,10.90
2022-08-06T04:42:18.232Z,10.90
2022-08-06T04:44:45.478Z,10.90
2022-08-06T04:47:14.790Z,11.00
2022-08-06T04:50:01.984Z,11.00
2022-08-06T04:52:33.939Z,11.10
2022-08-06T04:55:05.431Z,11.10
2022-08-06T04:57:56.481Z,11.20
2022-08-06T05:00:33.970Z,11.30
2022-08-06T05:03:17.580Z,11.30
2022-08-06T05:06:13.071Z,11.40
2022-08-06T05:08:42.958Z,11.50
2022-08-06T05:11:33.772Z,11.60
2022-08-06T05:14:09.090Z,11.70
2022-08-06T05:16:41.481Z,11.70
2022-08-06T05:19:39.514Z,11.80
2022-08-06T05:22:12.223Z,11.90
2022-08-06T05:25:00.741Z,12.00
2022-08-06T05:27:54.810Z,12.10
2022-08-06T05:30:15.443Z,12.20
2022-08-06T05:32:53.619Z,12.30
2022-08-06T05:35:20.629Z,12.40
2022-08-06T05:38:01.357Z,12.50
2022-08-06T05:40:35.084Z,12.50
2022-08-06T05:43:21.377Z,12.60
2022-08-06T05:45:52.133Z,12.70
2022-08-06T05:48:28.862Z,12.90
2022-08-06T05:51:10.607Z,13.00
2022-08-06T05:54:04.913Z,13.10
2022-08-06T05:56:41.957Z,13.20
2022-08-06T05:59:29.388Z,13.30
2022-08-06T06:02:06.573Z,13.30
2022-08-06T06:04:34.612Z,13.40
2022-08-06T06:07:04.802Z,13.50
2022-08-06T06:09:56.985Z,13.60
2022-08-06T06:12:31.680Z,13.70
2022-08-06T06:15:59.256Z,13.80
2022-08-06T06:18:00.101Z,14.00
2022-08-06T06:21:17.775Z,14.10
2022-08-06T06:23:55.335Z,14.20
2022-08-06T06:26:45.967Z,14.40
2022-08-06T06:30:06.739Z,14.40
2022-08-06T06:32:45.766Z,14.40
2022-08-06T06:35:22.656Z,14.60
2022-08-06T06:38:00.761Z,14.60
2022-08-06T06:41:02.799Z,14.60
2022-08-06T06:43:45.994Z,14.70
2022-08-06T06:46:59.211Z,14.80
2022-08-06T06:49:59.212Z,14.90
2022-08-06T06:52:30.457Z,15.00
2022-08-06T06:55:18.828Z,15.10
2022-08-06T06:57:51.997Z,15.20
2022-08-06T07:00:45.275Z,15.30
2022-08-06T07:03:09.657Z,15.40
2022-08-06T07:06:04.886Z,15.50
2022-08-06T07:08:32.227Z,15.60
2022-08-06T07:11:10.000Z,15.70
2022-08-06T07:13:47.571Z,15.80
2022-08-06T07:16:34.260Z,15.80
2022-08-06T07:19:10.814Z,16.00
2022-08-06T07:21:42.343Z,16.10
2022-08-06T07:24:38.561Z,16.20
2022-08-06T07:27:00.581Z,16.20
2022-08-06T07:29:59.466Z,16.30
2022-08-06T07:32:31.950Z,16.40
2022-08-06T07:35:06.031Z,16.50
2022-08-06T07:37:55.113Z,16.50
2022-08-06T07:40:28.952Z,16.50
2022-08-06T07:43:24.194Z,16.60
2022-08-06T07:45:55.214Z,16.60
2022-08-06T07:48:52.038Z,16.80
2022-08-06T07:51:34.333Z,16.90
2022-08-06T07:54:09.394Z,17.10
2022-08-06T07:56:40.015Z,17.10
2022-08-06T07:59:27.574Z,17.30
2022-08-06T08:01:59.357Z,17.40
2022-08-06T08:04:52.392Z,17.50
2022-08-06T08:07:20.812Z,17.50
2022-08-06T08:10:02.896Z,17.50
2022-08-06T08:12:34.880Z,17.60
2022-08-06T08:15:06.344Z,17.70
2022-08-06T08:17:45.027Z,17.70
2022-08-06T08:20:16.467Z,17.70
2022-08-06T08:22:48.382Z,17.80
2022-08-06T08:25:21.983Z,17.80
2022-08-06T08:28:12.081Z,18.00
2022-08-06T08:30:44.122Z,18.10
2022-08-06T08:33:15.473Z,18.20
2022-08-06T08:35:49.794Z,18.30
2022-08-06T08:38:21.985Z,18.30
2022-08-06T08:40:55.896Z,18.40
2022-08-06T08:43:58.882Z,18.40
2022-08-06T08:46:31.513Z,18.60
2022-08-06T08:49:04.965Z,18.50
2022-08-06T08:51:42.543Z,18.60
2022-08-06T08:54:16.850Z,18.80
2022-08-06T08:57:09.770Z,19.00
2022-08-06T09:00:00.094Z,19.00
2022-08-06T09:02:24.374Z,19.10
2022-08-06T09:04:52.979Z,19.20
2022-08-06T09:07:25.859Z,19.30
2022-08-06T09:10:04.592Z,19.50
2022-08-06T09:12:37.178Z,19.80
2022-08-06T09:15:12.343Z,19.70
2022-08-06T09:18:25.032Z,19.50
2022-08-06T09:20:28.930Z,19.60
2022-08-06T09:22:55.793Z,19.80
2022-08-06T09:25:49.765Z,20.00
2022-08-06T09:28:35.561Z,20.20
2022-08-06T09:31:21.880Z,20.70
2022-08-06T09:34:30.505Z,21.00
2022-08-06T09:36:56.690Z,20.90
2022-08-06T09:40:00.117Z,20.90
2022-08-06T09:42:45.613Z,20.80
2022-08-06T09:45:18.002Z,20.20
2022-08-06T09:47:58.211Z,20.30
2022-08-06T09:50:44.669Z,20.40
2022-08-06T09:53:18.504Z,20.60
2022-08-06T09:55:48.834Z,20.60
2022-08-06T09:58:26.526Z,20.60
2022-08-06T10:00:53.487Z,20.60
2022-08-06T10:04:05.103Z,20.80
2022-08-06T10:06:14.884Z,20.90
2022-08-06T10:08:43.306Z,20.90
2022-08-06T10:11:13.067Z,21.00
2022-08-06T10:13:44.366Z,21.20
2022-08-06T10:16:18.979Z,21.40
2022-08-06T10:18:56.246Z,21.40
2022-08-06T10:21:33.448Z,21.60
2022-08-06T10:24:09.291Z,21.60
2022-08-06T10:26:36.931Z,21.80
2022-08-06T10:29:07.058Z,21.90
2022-08-06T10:31:37.990Z,22.00
2022-08-06T10:34:09.367Z,21.70
2022-08-06T10:36:40.417Z,21.50
2022-08-06T10:40:09.278Z,21.60
2022-08-06T10:42:00.455Z,21.80
2022-08-06T10:44:32.570Z,22.00
2022-08-06T10:47:06.499Z,22.30
2022-08-06T10:50:32.247Z,22.40
2022-08-06T10:52:22.076Z,22.40
2022-08-06T10:54:52.611Z,22.30
2022-08-06T10:57:36.084Z,22.20
2022-08-06T11:00:06.593Z,22.10
2022-08-06T11:02:56.997Z,22.30
2022-08-06T11:05:29.329Z,22.00
2022-08-06T11:08:42.954Z,22.00
2022-08-06T11:11:32.337Z,21.90
2022-08-06T11:14:14.927Z,21.70
2022-08-06T11:16:58.759Z,21.50
2022-08-06T11:19:46.420Z,21.40
2022-08-06T11:22:53.430Z,21.60
2022-08-06T11:25:44.640Z,22.00
2022-08-06T11:28:14.008Z,22.40
2022-08-06T11:30:49.941Z,22.50
2022-08-06T11:33:45.676Z,22.30
2022-08-06T11:36:26.567Z,22.20
2022-08-06T11:38:56.836Z,22.10
2022-08-06T11:41:50.144Z,22.00
2022-08-06T11:44:27.437Z,21.70
2022-08-06T11:47:31.132Z,21.60
2022-08-06T11:50:10.168Z,21.80
2022-08-06T11:52:41.716Z,22.20
2022-08-06T11:55:22.993Z,22.20
2022-08-06T11:57:52.593Z,22.10
2022-08-06T12:00:22.410Z,22.30
2022-08-06T12:02:55.943Z,22.30
2022-08-06T12:05:25.600Z,22.30
2022-08-06T12:08:14.695Z,22.20
2022-08-06T12:11:22.112Z,21.90
2022-08-06T12:13:57.452Z,21.90
2022-08-06T12:16:41.419Z,21.70
2022-08-06T12:19:24.232Z,21.70
2022-08-06T12:21:56.481Z,21.60
2022-08-06T12:24:45.606Z,21.50
2022-08-06T12:27:17.006Z,21.90
2022-08-06T12:29:59.403Z,22.50
2022-08-06T12:32:35.442Z,22.80
2022-08-06T12:35:21.379Z,22.90
2022-08-06T12:37:51.441Z,22.90
2022-08-06T12:40:36.780Z,22.80
2022-08-06T12:43:14.481Z,22.60
2022-08-06T12:46:07.432Z,22.30
2022-08-06T12:48:31.854Z,22.00
2022-08-06T12:51:11.276Z,21.90
2022-08-06T12:53:47.090Z,21.80
2022-08-06T12:56:29.533Z,21.80
2022-08-06T12:59:00.817Z,21.80
2022-08-06T13:02:07.063Z,21.90
2022-08-06T13:04:19.834Z,21.80
2022-08-06T13:06:48.913Z,21.80
2022-08-06T13:09:17.980Z,21.80
2022-08-06T13:11:49.866Z,21.60
2022-08-06T13:14:19.638Z,21.70
2022-08-06T13:16:57.407Z,21.70
2022-08-06T13:19:32.864Z,21.80
2022-08-06T13:22:09.249Z,21.80
2022-08-06T13:24:36.386Z,22.00
2022-08-06T13:27:35.053Z,22.00
2022-08-06T13:30:34.788Z,22.00
2022-08-06T13:32:50.436Z,22.00
2022-08-06T13:35:30.762Z,22.00
2022-08-06T13:38:15.296Z,22.10
2022-08-06T13:40:57.078Z,22.20
2022-08-06T13:43:54.163Z,22.20
2022-08-06T13:46:27.878Z,22.20
2022-08-06T13:49:01.438Z,22.00
2022-08-06T13:51:34.407Z,22.00
2022-08-06T13:54:16.007Z,22.10
2022-08-06T13:56:48.711Z,22.20
2022-08-06T13:59:19.831Z,22.40
2022-08-06T14:01:49.312Z,22.60
2022-08-06T14:04:19.162Z,22.70
2022-08-06T14:06:48.351Z,22.90
2022-08-06T14:09:20.409Z,23.10
2022-08-06T14:11:58.502Z,23.40
2022-08-06T14:14:27.484Z,23.20
2022-08-06T14:16:57.026Z,23.00
2022-08-06T14:20:14.185Z,22.90
2022-08-06T14:22:11.675Z,22.60
2022-08-06T14:24:40.259Z,22.60
2022-08-06T14:27:14.882Z,22.40
2022-08-06T14:30:25.451Z,22.40
2022-08-06T14:32:28.998Z,22.40
2022-08-06T14:34:57.286Z,22.40
2022-08-06T14:37:43.949Z,22.40
2022-08-06T14:40:13.063Z,22.70
2022-08-06T14:43:28.579Z,23.10
2022-08-06T14:46:00.332Z,23.40
2022-08-06T14:48:31.146Z,23.70
2022-08-06T14:50:58.359Z,23.70
2022-08-06T14:53:31.268Z,23.50
2022-08-06T14:56:08.232Z,23.40
2022-08-06T14:58:35.684Z,23.20
2022-08-06T15:01:02.518Z,23.20
2022-08-06T15:03:33.248Z,23.20
2022-08-06T15:06:06.046Z,23.10
2022-08-06T15:08:35.870Z,23.10
2022-08-06T15:11:05.799Z,22.90
2022-08-06T15:13:38.539Z,22.80
2022-08-06T15:16:11.290Z,22.70
2022-08-06T15:19:15.595Z,22.80
2022-08-06T15:21:51.092Z,22.90
2022-08-06T15:24:21.236Z,23.10
2022-08-06T15:26:49.429Z,23.30
2022-08-06T15:29:16.899Z,23.00
2022-08-06T15:31:48.092Z,22.80
2022-08-06T15:34:20.494Z,22.70
2022-08-06T15:37:01.696Z,22.60
2022-08-06T15:39:52.870Z,22.40
2022-08-06T15:42:20.558Z,22.50
2022-08-06T15:44:49.279Z,22.30
2022-08-06T15:47:16.716Z,22.30
2022-08-06T15:50:01.221Z,22.30
2022-08-06T15:52:32.763Z,22.20
2022-08-06T15:55:16.439Z,22.20
2022-08-06T15:58:04.809Z,22.20
2022-08-06T16:00:38.528Z,22.20
2022-08-06T16:03:13.316Z,22.20
2022-08-06T16:06:11.947Z,22.20
2022-08-06T16:08:34.251Z,22.30
2022-08-06T16:11:08.956Z,22.40
2022-08-06T16:13:37.240Z,23.10
2022-08-06T16:16:06.208Z,23.30
2022-08-06T16:18:34.314Z,23.70
2022-08-06T16:21:06.106Z,23.80
2022-08-06T16:23:55.291Z,24.20
2022-08-06T16:26:40.536Z,24.50
2022-08-06T16:29:08.824Z,24.70
2022-08-06T16:31:47.186Z,24.80
2022-08-06T16:34:25.255Z,24.80
2022-08-06T16:36:58.648Z,24.70
2022-08-06T16:39:35.656Z,24.80
2022-08-06T16:42:09.986Z,24.50
2022-08-06T16:47:24.249Z,23.70
2022-08-06T16:50:17.684Z,23.80
2022-08-06T16:52:42.035Z,23.90
2022-08-06T16:55:12.516Z,24.20
2022-08-06T17:01:00.306Z,24.30
2022-08-06T17:03:16.140Z,24.40
2022-08-06T17:06:02.963Z,24.50
2022-08-06T17:08:33.678Z,24.40
2022-08-06T17:11:01.604Z,24.20
2022-08-06T17:13:38.284Z,23.90
2022-08-06T17:18:53.998Z,23.50
2022-08-06T17:24:07.811Z,23.20
2022-08-06T17:26:36.992Z,23.00
2022-08-06T17:29:06.029Z,22.80
2022-08-06T17:31:57.524Z,22.50
2022-08-06T17:34:19.822Z,22.20
2022-08-06T17:36:50.748Z,22.00
2022-08-06T17:44:52.595Z,21.70
2022-08-06T17:47:22.067Z,21.60
2022-08-06T17:49:48.908Z,21.50
2022-08-06T17:52:16.353Z,21.40
2022-08-06T17:54:47.049Z,21.40
2022-08-06T17:58:02.474Z,21.30
2022-08-06T18:00:10.942Z,21.20
2022-08-06T18:02:38.231Z,21.00
2022-08-06T18:05:35.156Z,20.80
2022-08-06T18:08:11.133Z,20.60
2022-08-06T18:10:42.344Z,20.40
2022-08-06T18:13:11.823Z,20.30
2022-08-06T18:15:40.725Z,20.10
2022-08-06T18:18:15.359Z,20.00
2022-08-06T18:20:46.266Z,19.80
2022-08-06T18:23:20.643Z,19.80
2022-08-06T18:25:57.321Z,19.60
2022-08-06T18:28:39.613Z,19.50
2022-08-06T18:31:20.025Z,19.40
2022-08-06T18:33:48.226Z,19.30
2022-08-06T18:36:32.760Z,19.30
2022-08-06T18:39:00.749Z,19.20
2022-08-06T18:41:28.303Z,19.10
2022-08-06T18:43:59.902Z,19.00
2022-08-06T18:47:02.539Z,18.90
2022-08-06T18:49:20.593Z,18.80
2022-08-06T18:51:59.968Z,18.70
2022-08-06T18:54:27.004Z,18.50
2022-08-06T18:56:55.490Z,18.40
2022-08-06T18:59:28.921Z,18.30
2022-08-06T19:01:59.934Z,18.30
2022-08-06T19:04:29.961Z,18.20
2022-08-06T19:07:03.237Z,18.00
2022-08-06T19:09:35.375Z,17.90
2022-08-06T19:12:13.241Z,17.80
2022-08-06T19:14:43.748Z,17.70
2022-08-06T19:17:11.836Z,17.60
2022-08-06T19:20:18.107Z,17.50
2022-08-06T19:22:29.210Z,17.40
2022-08-06T19:24:57.229Z,17.30
2022-08-06T19:28:29.815Z,17.30
2022-08-06T19:30:41.394Z,17.30
2022-08-06T19:32:58.840Z,17.20
2022-08-06T19:36:03.614Z,17.10
2022-08-06T19:38:13.282Z,17.00
2022-08-06T19:40:52.586Z,17.00
2022-08-06T19:44:25.088Z,16.90
2022-08-06T19:46:28.881Z,16.90
2022-08-06T19:48:57.991Z,16.80
2022-08-06T19:52:03.269Z,16.70
2022-08-06T19:54:15.574Z,16.60
2022-08-06T19:56:44.320Z,16.50
2022-08-06T20:00:51.000Z,16.50
2022-08-06T20:02:08.792Z,16.40
2022-08-06T20:04:42.877Z,16.30
2022-08-06T20:07:24.017Z,16.20
2022-08-06T20:09:59.723Z,16.20
2022-08-06T20:12:32.207Z,16.10
2022-08-06T20:15:11.505Z,16.00
2022-08-06T20:17:50.051Z,16.00
2022-08-06T20:20:28.838Z,16.00
2022-08-06T20:22:59.545Z,15.90
2022-08-06T20:25:26.844Z,15.80
2022-08-06T20:29:07.119Z,15.70
2022-08-06T20:30:49.755Z,15.60
2022-08-06T20:33:23.951Z,15.60
2022-08-06T20:35:57.803Z,15.50
2022-08-06T20:38:35.849Z,15.40
2022-08-06T20:41:58.076Z,15.40
2022-08-06T20:44:06.713Z,15.30
2022-08-06T20:49:48.071Z,15.20
2022-08-06T20:52:10.941Z,15.20
2022-08-06T20:54:48.193Z,15.20
2022-08-06T20:57:18.529Z,15.10
2022-08-06T20:59:51.022Z,15.10
2022-08-06T21:02:25.929Z,15.10
2022-08-06T21:05:14.233Z,15.10
2022-08-06T21:07:57.702Z,15.10
2022-08-06T21:10:30.386Z,15.00
2022-08-06T21:13:01.128Z,15.00
2022-08-06T21:15:56.328Z,15.00
2022-08-06T21:18:20.671Z,14.90
2022-08-06T21:20:50.781Z,14.90
2022-08-06T21:23:42.190Z,14.80
2022-08-06T21:26:15.154Z,14.80
2022-08-06T21:28:54.088Z,14.70
2022-08-06T21:31:24.029Z,14.60
2022-08-06T21:33:54.244Z,14.50
2022-08-06T21:36:25.783Z,14.50
2022-08-06T21:38:55.290Z,14.40
2022-08-06T21:41:29.764Z,14.40
2022-08-06T21:44:16.234Z,14.30
2022-08-06T21:46:57.952Z,14.30
2022-08-06T21:49:58.653Z,14.30
2022-08-06T21:52:12.101Z,14.20
2022-08-06T21:54:43.273Z,14.20
2022-08-06T21:57:12.322Z,14.20
2022-08-06T21:59:46.335Z,14.10
2022-08-06T22:02:21.852Z,14.10
2022-08-06T22:05:00.057Z,14.10
2022-08-06T22:07:47.149Z,14.00
2022-08-06T22:10:15.425Z,14.00
2022-08-06T22:13:15.613Z,13.90
2022-08-06T22:15:45.203Z,13.90
2022-08-06T22:18:16.607Z,13.90
2022-08-06T22:20:44.913Z,13.80
2022-08-06T22:23:11.725Z,13.80
2022-08-06T22:25:38.792Z,13.80
2022-08-06T22:28:09.387Z,13.80
2022-08-06T22:30:42.372Z,13.80
2022-08-06T22:33:14.547Z,13.80
2022-08-06T22:35:58.494Z,13.70
2022-08-06T22:38:32.160Z,13.70
2022-08-06T22:40:59.754Z,13.60
2022-08-06T22:43:51.617Z,13.60
2022-08-06T22:46:13.574Z,13.60
2022-08-06T22:48:40.747Z,13.60
2022-08-06T22:51:18.838Z,13.60
2022-08-06T22:54:28.074Z,13.50
2022-08-06T22:56:36.612Z,13.50
2022-08-06T22:59:19.734Z,13.50
2022-08-06T23:02:06.228Z,13.50
2022-08-06T23:04:41.002Z,13.40
2022-08-06T23:07:09.500Z,13.40
2022-08-06T23:09:39.731Z,13.40
2022-08-06T23:12:07.981Z,13.40
2022-08-06T23:14:38.587Z,13.30
2022-08-06T23:17:06.856Z,13.30
2022-08-06T23:19:56.982Z,13.30
2022-08-06T23:22:24.243Z,13.20
2022-08-06T23:25:03.479Z,13.20
2022-08-06T23:27:46.499Z,13.20
2022-08-06T23:30:20.193Z,13.10
2022-08-06T23:32:49.202Z,13.10
2022-08-06T23:35:36.669Z,13.10
2022-08-06T23:38:31.496Z,13.00
2022-08-06T23:40:52.182Z,13.00
2022-08-06T23:43:20.723Z,13.00
2022-08-06T23:45:50.691Z,12.90
2022-08-06T23:48:18.204Z,12.90
2022-08-06T23:50:52.752Z,12.90
2022-08-06T23:54:06.976Z,12.80
2022-08-06T23:56:14.576Z,12.80
2022-08-06T23:58:48.528Z,12.80
